sensor_id;sensor_type;location;lat;lon;timestamp;P1;durP1;ratioP1;P2;durP2;ratioP2
286;SDS011;127;48.770;9.212;2024-01-30T00:00:14;10.30;;;6.50;;
286;SDS011;127;48.770;9.212;2024-01-30T00:02:43;11.02;;;6.43;;
286;SDS011;127;48.770;9.212;2024-01-30T00:05:12;10.32;;;5.80;;
286;SDS011;127;48.770;9.212;2024-01-30T00:07:46;12.50;;;6.30;;
286;SDS011;127;48.770;9.212;2024-01-30T00:10:15;11.10;;;6.00;;
286;SDS011;127;48.770;9.212;2024-01-30T00:12:44;9.50;;;6.25;;
286;SDS011;127;48.770;9.212;2024-01-30T00:15:13;7.00;;;5.40;;
286;SDS011;127;48.770;9.212;2024-01-30T00:17:42;16.03;;;6.17;;
286;SDS011;127;48.770;9.212;2024-01-30T00:20:11;9.63;;;6.53;;
286;SDS011;127;48.770;9.212;2024-01-30T00:22:40;9.20;;;5.75;;
286;SDS011;127;48.770;9.212;2024-01-30T00:25:12;10.75;;;5.72;;
286;SDS011;127;48.770;9.212;2024-01-30T00:27:43;9.53;;;5.83;;
286;SDS011;127;48.770;9.212;2024-01-30T00:30:14;7.00;;;5.40;;
286;SDS011;127;48.770;9.212;2024-01-30T00:32:43;8.10;;;5.47;;
286;SDS011;127;48.770;9.212;2024-01-30T00:35:12;8.43;;;5.50;;
286;SDS011;127;48.770;9.212;2024-01-30T00:37:41;7.47;;;5.50;;
286;SDS011;127;48.770;9.212;2024-01-30T00:40:13;9.57;;;6.07;;
286;SDS011;127;48.770;9.212;2024-01-30T00:42:43;9.27;;;5.10;;
286;SDS011;127;48.770;9.212;2024-01-30T00:45:12;9.80;;;6.20;;
286;SDS011;127;48.770;9.212;2024-01-30T00:47:41;7.87;;;5.30;;
286;SDS011;127;48.770;9.212;2024-01-30T00:50:10;8.83;;;4.80;;
286;SDS011;127;48.770;9.212;2024-01-30T00:52:39;8.60;;;5.80;;
286;SDS011;127;48.770;9.212;2024-01-30T00:55:12;7.83;;;5.50;;
286;SDS011;127;48.770;9.212;2024-01-30T00:57:41;11.57;;;5.90;;
286;SDS011;127;48.770;9.212;2024-01-30T01:00:11;7.17;;;5.60;;
286;SDS011;127;48.770;9.212;2024-01-30T01:02:45;9.40;;;5.80;;
286;SDS011;127;48.770;9.212;2024-01-30T01:05:13;9.80;;;6.67;;
286;SDS011;127;48.770;9.212;2024-01-30T01:07:45;10.00;;;6.17;;
286;SDS011;127;48.770;9.212;2024-01-30T01:10:17;9.10;;;6.40;;
286;SDS011;127;48.770;9.212;2024-01-30T01:12:46;10.47;;;5.70;;
286;SDS011;127;48.770;9.212;2024-01-30T01:15:15;9.30;;;5.90;;
286;SDS011;127;48.770;9.212;2024-01-30T01:17:44;11.07;;;6.50;;
286;SDS011;127;48.770;9.212;2024-01-30T01:20:16;11.67;;;6.97;;
286;SDS011;127;48.770;9.212;2024-01-30T01:22:45;8.97;;;5.83;;
286;SDS011;127;48.770;9.212;2024-01-30T01:25:16;14.73;;;6.23;;
286;SDS011;127;48.770;9.212;2024-01-30T01:27:45;13.10;;;6.33;;
286;SDS011;127;48.770;9.212;2024-01-30T01:30:17;8.18;;;6.38;;
286;SDS011;127;48.770;9.212;2024-01-30T01:32:47;14.27;;;7.47;;
286;SDS011;127;48.770;9.212;2024-01-30T01:35:20;11.43;;;7.60;;
286;SDS011;127;48.770;9.212;2024-01-30T01:37:50;16.02;;;8.50;;
286;SDS011;127;48.770;9.212;2024-01-30T01:40:23;14.00;;;7.68;;
286;SDS011;127;48.770;9.212;2024-01-30T01:42:53;14.52;;;8.50;;
286;SDS011;127;48.770;9.212;2024-01-30T01:45:23;12.80;;;7.78;;
286;SDS011;127;48.770;9.212;2024-01-30T01:47:56;18.58;;;8.10;;
286;SDS011;127;48.770;9.212;2024-01-30T01:50:25;13.77;;;8.50;;
286;SDS011;127;48.770;9.212;2024-01-30T01:52:54;17.08;;;8.18;;
286;SDS011;127;48.770;9.212;2024-01-30T01:55:26;15.18;;;8.85;;
286;SDS011;127;48.770;9.212;2024-01-30T01:57:57;12.10;;;8.23;;
286;SDS011;127;48.770;9.212;2024-01-30T02:00:26;17.75;;;8.60;;
286;SDS011;127;48.770;9.212;2024-01-30T02:02:56;15.75;;;8.30;;
286;SDS011;127;48.770;9.212;2024-01-30T02:05:27;13.00;;;8.55;;
286;SDS011;127;48.770;9.212;2024-01-30T02:07:56;10.65;;;7.55;;
286;SDS011;127;48.770;9.212;2024-01-30T02:10:28;13.60;;;7.80;;
286;SDS011;127;48.770;9.212;2024-01-30T02:12:56;15.27;;;8.45;;
286;SDS011;127;48.770;9.212;2024-01-30T02:15:25;10.07;;;7.43;;
286;SDS011;127;48.770;9.212;2024-01-30T02:17:58;14.55;;;7.25;;
286;SDS011;127;48.770;9.212;2024-01-30T02:20:30;16.00;;;8.30;;
286;SDS011;127;48.770;9.212;2024-01-30T02:23:05;15.57;;;7.82;;
286;SDS011;127;48.770;9.212;2024-01-30T02:25:37;11.70;;;7.50;;
286;SDS011;127;48.770;9.212;2024-01-30T02:28:09;20.75;;;9.05;;
286;SDS011;127;48.770;9.212;2024-01-30T02:30:38;15.23;;;8.57;;
286;SDS011;127;48.770;9.212;2024-01-30T02:33:07;12.27;;;7.95;;
286;SDS011;127;48.770;9.212;2024-01-30T02:35:36;17.63;;;8.30;;
286;SDS011;127;48.770;9.212;2024-01-30T02:38:08;14.82;;;8.40;;
286;SDS011;127;48.770;9.212;2024-01-30T02:40:38;14.23;;;7.95;;
286;SDS011;127;48.770;9.212;2024-01-30T02:43:07;15.48;;;9.40;;
286;SDS011;127;48.770;9.212;2024-01-30T02:45:36;14.65;;;7.93;;
286;SDS011;127;48.770;9.212;2024-01-30T02:48:08;14.55;;;8.93;;
286;SDS011;127;48.770;9.212;2024-01-30T02:50:38;13.63;;;8.88;;
286;SDS011;127;48.770;9.212;2024-01-30T02:53:10;16.30;;;8.75;;
286;SDS011;127;48.770;9.212;2024-01-30T02:55:39;15.13;;;8.45;;
286;SDS011;127;48.770;9.212;2024-01-30T02:58:08;15.18;;;8.85;;
286;SDS011;127;48.770;9.212;2024-01-30T03:00:38;15.23;;;8.88;;
286;SDS011;127;48.770;9.212;2024-01-30T03:03:07;17.88;;;8.82;;
286;SDS011;127;48.770;9.212;2024-01-30T03:05:36;14.93;;;8.52;;
286;SDS011;127;48.770;9.212;2024-01-30T03:08:05;15.77;;;8.35;;
286;SDS011;127;48.770;9.212;2024-01-30T03:10:37;15.95;;;8.98;;
286;SDS011;127;48.770;9.212;2024-01-30T03:13:05;12.95;;;8.88;;
286;SDS011;127;48.770;9.212;2024-01-30T03:15:34;15.02;;;8.43;;
286;SDS011;127;48.770;9.212;2024-01-30T03:18:04;17.85;;;9.30;;
286;SDS011;127;48.770;9.212;2024-01-30T03:20:33;18.42;;;9.43;;
286;SDS011;127;48.770;9.212;2024-01-30T03:23:02;18.15;;;8.90;;
286;SDS011;127;48.770;9.212;2024-01-30T03:25:31;16.70;;;8.98;;
286;SDS011;127;48.770;9.212;2024-01-30T03:28:03;15.43;;;8.90;;
286;SDS011;127;48.770;9.212;2024-01-30T03:30:33;13.88;;;8.70;;
286;SDS011;127;48.770;9.212;2024-01-30T03:33:03;16.67;;;10.60;;
286;SDS011;127;48.770;9.212;2024-01-30T03:35:32;15.10;;;8.70;;
286;SDS011;127;48.770;9.212;2024-01-30T03:38:01;17.38;;;10.10;;
286;SDS011;127;48.770;9.212;2024-01-30T03:40:31;19.90;;;9.63;;
286;SDS011;127;48.770;9.212;2024-01-30T03:43:03;16.45;;;9.52;;
286;SDS011;127;48.770;9.212;2024-01-30T03:45:33;13.32;;;8.63;;
286;SDS011;127;48.770;9.212;2024-01-30T03:48:03;19.23;;;9.88;;
286;SDS011;127;48.770;9.212;2024-01-30T03:50:32;24.75;;;9.13;;
286;SDS011;127;48.770;9.212;2024-01-30T03:53:01;12.25;;;8.23;;
286;SDS011;127;48.770;9.212;2024-01-30T03:55:32;15.77;;;9.23;;
286;SDS011;127;48.770;9.212;2024-01-30T03:58:06;17.58;;;9.63;;
286;SDS011;127;48.770;9.212;2024-01-30T04:00:35;16.98;;;9.77;;
286;SDS011;127;48.770;9.212;2024-01-30T04:03:06;15.90;;;8.70;;
286;SDS011;127;48.770;9.212;2024-01-30T04:05:35;19.05;;;9.75;;
286;SDS011;127;48.770;9.212;2024-01-30T04:08:04;15.00;;;8.88;;
286;SDS011;127;48.770;9.212;2024-01-30T04:10:33;19.42;;;8.68;;
286;SDS011;127;48.770;9.212;2024-01-30T04:13:02;16.73;;;8.82;;
286;SDS011;127;48.770;9.212;2024-01-30T04:15:34;13.85;;;8.18;;
286;SDS011;127;48.770;9.212;2024-01-30T04:18:03;15.10;;;8.43;;
286;SDS011;127;48.770;9.212;2024-01-30T04:20:32;14.32;;;8.80;;
286;SDS011;127;48.770;9.212;2024-01-30T04:23:01;16.98;;;9.55;;
286;SDS011;127;48.770;9.212;2024-01-30T04:25:30;16.83;;;9.35;;
286;SDS011;127;48.770;9.212;2024-01-30T04:28:01;17.70;;;10.02;;
286;SDS011;127;48.770;9.212;2024-01-30T04:30:30;16.02;;;9.25;;
286;SDS011;127;48.770;9.212;2024-01-30T04:33:02;16.15;;;10.63;;
286;SDS011;127;48.770;9.212;2024-01-30T04:35:31;16.02;;;9.95;;
286;SDS011;127;48.770;9.212;2024-01-30T04:38:00;15.07;;;9.85;;
286;SDS011;127;48.770;9.212;2024-01-30T04:40:28;17.38;;;9.20;;
286;SDS011;127;48.770;9.212;2024-01-30T04:42:57;15.90;;;9.52;;
286;SDS011;127;48.770;9.212;2024-01-30T04:45:28;17.35;;;10.00;;
286;SDS011;127;48.770;9.212;2024-01-30T04:47:57;13.90;;;8.85;;
286;SDS011;127;48.770;9.212;2024-01-30T04:50:32;15.90;;;8.55;;
286;SDS011;127;48.770;9.212;2024-01-30T04:53:04;18.85;;;8.57;;
286;SDS011;127;48.770;9.212;2024-01-30T04:55:36;15.30;;;9.63;;
286;SDS011;127;48.770;9.212;2024-01-30T04:58:05;17.15;;;10.43;;
286;SDS011;127;48.770;9.212;2024-01-30T05:00:34;26.35;;;10.68;;
286;SDS011;127;48.770;9.212;2024-01-30T05:03:05;19.33;;;9.80;;
286;SDS011;127;48.770;9.212;2024-01-30T05:05:37;13.80;;;9.40;;
286;SDS011;127;48.770;9.212;2024-01-30T05:08:06;16.20;;;10.60;;
286;SDS011;127;48.770;9.212;2024-01-30T05:10:35;16.35;;;10.20;;
286;SDS011;127;48.770;9.212;2024-01-30T05:13:05;15.75;;;8.98;;
286;SDS011;127;48.770;9.212;2024-01-30T05:15:33;13.27;;;8.88;;
286;SDS011;127;48.770;9.212;2024-01-30T05:18:03;13.85;;;8.52;;
286;SDS011;127;48.770;9.212;2024-01-30T05:20:32;20.02;;;10.10;;
286;SDS011;127;48.770;9.212;2024-01-30T05:23:03;20.92;;;9.50;;
286;SDS011;127;48.770;9.212;2024-01-30T05:25:33;14.50;;;8.73;;
286;SDS011;127;48.770;9.212;2024-01-30T05:28:02;17.85;;;8.98;;
286;SDS011;127;48.770;9.212;2024-01-30T05:30:31;16.35;;;10.55;;
286;SDS011;127;48.770;9.212;2024-01-30T05:33:00;13.43;;;8.90;;
286;SDS011;127;48.770;9.212;2024-01-30T05:35:29;13.10;;;8.57;;
286;SDS011;127;48.770;9.212;2024-01-30T05:37:58;19.38;;;9.07;;
286;SDS011;127;48.770;9.212;2024-01-30T05:40:29;16.50;;;9.73;;
286;SDS011;127;48.770;9.212;2024-01-30T05:42:58;18.05;;;8.88;;
286;SDS011;127;48.770;9.212;2024-01-30T05:45:28;26.88;;;9.52;;
286;SDS011;127;48.770;9.212;2024-01-30T05:47:57;12.60;;;8.60;;
286;SDS011;127;48.770;9.212;2024-01-30T05:50:26;14.45;;;7.90;;
286;SDS011;127;48.770;9.212;2024-01-30T05:52:55;18.30;;;10.00;;
286;SDS011;127;48.770;9.212;2024-01-30T05:55:23;22.50;;;9.30;;
286;SDS011;127;48.770;9.212;2024-01-30T05:57:55;21.30;;;9.65;;
286;SDS011;127;48.770;9.212;2024-01-30T06:00:27;16.40;;;9.50;;
286;SDS011;127;48.770;9.212;2024-01-30T06:02:58;18.73;;;10.32;;
286;SDS011;127;48.770;9.212;2024-01-30T06:05:28;16.10;;;9.60;;
286;SDS011;127;48.770;9.212;2024-01-30T06:07:57;19.58;;;9.32;;
286;SDS011;127;48.770;9.212;2024-01-30T06:10:28;18.23;;;8.70;;
286;SDS011;127;48.770;9.212;2024-01-30T06:12:59;20.27;;;10.68;;
286;SDS011;127;48.770;9.212;2024-01-30T06:15:28;25.17;;;10.23;;
286;SDS011;127;48.770;9.212;2024-01-30T06:17:59;17.88;;;11.15;;
286;SDS011;127;48.770;9.212;2024-01-30T06:20:28;22.50;;;11.20;;
286;SDS011;127;48.770;9.212;2024-01-30T06:22:57;17.10;;;10.50;;
286;SDS011;127;48.770;9.212;2024-01-30T06:25:28;24.05;;;10.52;;
286;SDS011;127;48.770;9.212;2024-01-30T06:28:00;18.23;;;9.80;;
286;SDS011;127;48.770;9.212;2024-01-30T06:30:29;15.45;;;10.52;;
286;SDS011;127;48.770;9.212;2024-01-30T06:33:00;24.60;;;10.30;;
286;SDS011;127;48.770;9.212;2024-01-30T06:35:29;15.10;;;9.32;;
286;SDS011;127;48.770;9.212;2024-01-30T06:38:00;14.73;;;9.30;;
286;SDS011;127;48.770;9.212;2024-01-30T06:40:29;18.35;;;10.18;;
286;SDS011;127;48.770;9.212;2024-01-30T06:43:04;23.20;;;10.70;;
286;SDS011;127;48.770;9.212;2024-01-30T06:45:33;18.88;;;11.77;;
286;SDS011;127;48.770;9.212;2024-01-30T06:48:09;20.15;;;12.15;;
286;SDS011;127;48.770;9.212;2024-01-30T06:50:38;19.60;;;11.23;;
286;SDS011;127;48.770;9.212;2024-01-30T06:53:07;19.73;;;11.20;;
286;SDS011;127;48.770;9.212;2024-01-30T06:55:42;23.00;;;11.48;;
286;SDS011;127;48.770;9.212;2024-01-30T06:58:16;24.40;;;11.82;;
286;SDS011;127;48.770;9.212;2024-01-30T07:00:45;23.20;;;11.70;;
286;SDS011;127;48.770;9.212;2024-01-30T07:03:14;27.00;;;11.63;;
286;SDS011;127;48.770;9.212;2024-01-30T07:05:46;20.23;;;10.68;;
286;SDS011;127;48.770;9.212;2024-01-30T07:08:15;21.42;;;12.68;;
286;SDS011;127;48.770;9.212;2024-01-30T07:10:45;21.60;;;12.32;;
286;SDS011;127;48.770;9.212;2024-01-30T07:13:16;21.20;;;10.85;;
286;SDS011;127;48.770;9.212;2024-01-30T07:15:45;23.35;;;11.48;;
286;SDS011;127;48.770;9.212;2024-01-30T07:18:14;25.30;;;12.20;;
286;SDS011;127;48.770;9.212;2024-01-30T07:20:43;21.02;;;11.43;;
286;SDS011;127;48.770;9.212;2024-01-30T07:23:14;24.35;;;13.15;;
286;SDS011;127;48.770;9.212;2024-01-30T07:25:44;18.85;;;11.93;;
286;SDS011;127;48.770;9.212;2024-01-30T07:28:16;21.95;;;11.65;;
286;SDS011;127;48.770;9.212;2024-01-30T07:30:45;23.35;;;12.25;;
286;SDS011;127;48.770;9.212;2024-01-30T07:33:18;21.40;;;11.95;;
286;SDS011;127;48.770;9.212;2024-01-30T07:35:47;20.63;;;11.82;;
286;SDS011;127;48.770;9.212;2024-01-30T07:38:16;30.30;;;12.65;;
286;SDS011;127;48.770;9.212;2024-01-30T07:40:45;19.95;;;11.40;;
286;SDS011;127;48.770;9.212;2024-01-30T07:43:19;23.38;;;11.38;;
286;SDS011;127;48.770;9.212;2024-01-30T07:45:48;22.08;;;12.23;;
286;SDS011;127;48.770;9.212;2024-01-30T07:48:20;17.67;;;10.85;;
286;SDS011;127;48.770;9.212;2024-01-30T07:50:52;21.25;;;12.20;;
286;SDS011;127;48.770;9.212;2024-01-30T07:53:21;25.73;;;12.82;;
286;SDS011;127;48.770;9.212;2024-01-30T07:55:50;22.20;;;12.27;;
286;SDS011;127;48.770;9.212;2024-01-30T07:58:26;17.45;;;10.40;;
286;SDS011;127;48.770;9.212;2024-01-30T08:00:55;21.23;;;10.93;;
286;SDS011;127;48.770;9.212;2024-01-30T08:03:25;22.10;;;11.77;;
286;SDS011;127;48.770;9.212;2024-01-30T08:05:55;17.73;;;11.10;;
286;SDS011;127;48.770;9.212;2024-01-30T08:08:33;17.95;;;11.13;;
286;SDS011;127;48.770;9.212;2024-01-30T08:11:05;18.83;;;8.80;;
286;SDS011;127;48.770;9.212;2024-01-30T08:13:40;17.88;;;9.10;;
286;SDS011;127;48.770;9.212;2024-01-30T08:18:48;14.63;;;8.13;;
286;SDS011;127;48.770;9.212;2024-01-30T08:21:18;15.05;;;8.93;;
286;SDS011;127;48.770;9.212;2024-01-30T08:23:50;13.88;;;8.45;;
286;SDS011;127;48.770;9.212;2024-01-30T08:26:19;14.27;;;7.95;;
286;SDS011;127;48.770;9.212;2024-01-30T08:28:50;13.13;;;6.93;;
286;SDS011;127;48.770;9.212;2024-01-30T08:31:19;9.37;;;7.10;;
286;SDS011;127;48.770;9.212;2024-01-30T08:33:48;17.90;;;8.80;;
286;SDS011;127;48.770;9.212;2024-01-30T08:36:17;23.27;;;8.60;;
286;SDS011;127;48.770;9.212;2024-01-30T08:38:46;14.80;;;8.63;;
286;SDS011;127;48.770;9.212;2024-01-30T08:41:15;15.47;;;9.00;;
286;SDS011;127;48.770;9.212;2024-01-30T08:43:44;16.53;;;10.23;;
286;SDS011;127;48.770;9.212;2024-01-30T08:46:16;20.90;;;9.93;;
286;SDS011;127;48.770;9.212;2024-01-30T08:48:47;14.30;;;9.10;;
286;SDS011;127;48.770;9.212;2024-01-30T08:51:16;20.33;;;9.70;;
286;SDS011;127;48.770;9.212;2024-01-30T08:53:45;15.43;;;8.43;;
286;SDS011;127;48.770;9.212;2024-01-30T08:56:14;13.40;;;7.90;;
286;SDS011;127;48.770;9.212;2024-01-30T08:58:43;14.87;;;8.47;;
286;SDS011;127;48.770;9.212;2024-01-30T09:01:12;19.60;;;9.43;;
286;SDS011;127;48.770;9.212;2024-01-30T09:03:44;14.10;;;9.80;;
286;SDS011;127;48.770;9.212;2024-01-30T09:11:26;21.40;;;10.33;;
286;SDS011;127;48.770;9.212;2024-01-30T09:14:01;15.70;;;9.60;;
286;SDS011;127;48.770;9.212;2024-01-30T09:17:20;16.50;;;10.20;;
286;SDS011;127;48.770;9.212;2024-01-30T09:20:03;13.27;;;8.73;;
286;SDS011;127;48.770;9.212;2024-01-30T09:22:55;15.70;;;9.43;;
286;SDS011;127;48.770;9.212;2024-01-30T09:25:25;14.60;;;8.80;;
286;SDS011;127;48.770;9.212;2024-01-30T09:27:58;17.53;;;10.30;;
286;SDS011;127;48.770;9.212;2024-01-30T09:30:27;16.03;;;9.90;;
286;SDS011;127;48.770;9.212;2024-01-30T09:33:00;21.67;;;10.70;;
286;SDS011;127;48.770;9.212;2024-01-30T09:35:34;15.57;;;9.90;;
286;SDS011;127;48.770;9.212;2024-01-30T09:38:09;16.20;;;10.10;;
286;SDS011;127;48.770;9.212;2024-01-30T09:40:38;13.23;;;8.83;;
286;SDS011;127;48.770;9.212;2024-01-30T09:43:13;9.93;;;5.83;;
286;SDS011;127;48.770;9.212;2024-01-30T09:46:05;18.50;;;8.40;;
286;SDS011;127;48.770;9.212;2024-01-30T09:48:38;14.80;;;6.63;;
286;SDS011;127;48.770;9.212;2024-01-30T09:51:10;10.07;;;7.57;;
286;SDS011;127;48.770;9.212;2024-01-30T09:53:43;14.30;;;8.50;;
286;SDS011;127;48.770;9.212;2024-01-30T09:56:26;12.43;;;6.70;;
286;SDS011;127;48.770;9.212;2024-01-30T09:58:55;17.27;;;6.87;;
286;SDS011;127;48.770;9.212;2024-01-30T10:01:28;12.30;;;5.93;;
286;SDS011;127;48.770;9.212;2024-01-30T10:04:03;8.53;;;6.17;;
286;SDS011;127;48.770;9.212;2024-01-30T10:06:38;14.10;;;6.93;;
286;SDS011;127;48.770;9.212;2024-01-30T10:09:08;12.77;;;6.47;;
286;SDS011;127;48.770;9.212;2024-01-30T10:11:41;16.50;;;6.70;;
286;SDS011;127;48.770;9.212;2024-01-30T10:14:15;11.90;;;7.03;;
286;SDS011;127;48.770;9.212;2024-01-30T10:17:01;15.10;;;9.23;;
286;SDS011;127;48.770;9.212;2024-01-30T10:19:30;13.63;;;6.57;;
286;SDS011;127;48.770;9.212;2024-01-30T10:22:15;15.40;;;9.00;;
286;SDS011;127;48.770;9.212;2024-01-30T10:24:45;15.93;;;7.77;;
286;SDS011;127;48.770;9.212;2024-01-30T10:27:15;14.20;;;7.23;;
286;SDS011;127;48.770;9.212;2024-01-30T10:29:48;13.40;;;7.50;;
286;SDS011;127;48.770;9.212;2024-01-30T10:32:20;17.70;;;9.40;;
286;SDS011;127;48.770;9.212;2024-01-30T10:34:50;9.53;;;5.70;;
286;SDS011;127;48.770;9.212;2024-01-30T10:37:27;15.03;;;8.37;;
286;SDS011;127;48.770;9.212;2024-01-30T10:39:59;21.17;;;7.53;;
286;SDS011;127;48.770;9.212;2024-01-30T10:45:23;15.87;;;8.30;;
286;SDS011;127;48.770;9.212;2024-01-30T10:48:06;11.53;;;7.63;;
286;SDS011;127;48.770;9.212;2024-01-30T10:50:40;15.00;;;7.07;;
286;SDS011;127;48.770;9.212;2024-01-30T10:53:19;15.03;;;7.73;;
286;SDS011;127;48.770;9.212;2024-01-30T10:55:51;9.83;;;4.33;;
286;SDS011;127;48.770;9.212;2024-01-30T10:58:26;17.67;;;6.20;;
286;SDS011;127;48.770;9.212;2024-01-30T11:00:55;12.70;;;6.70;;
286;SDS011;127;48.770;9.212;2024-01-30T11:03:26;9.93;;;5.30;;
286;SDS011;127;48.770;9.212;2024-01-30T11:05:58;15.30;;;7.10;;
286;SDS011;127;48.770;9.212;2024-01-30T11:08:36;15.40;;;8.00;;
286;SDS011;127;48.770;9.212;2024-01-30T11:11:08;15.33;;;7.67;;
286;SDS011;127;48.770;9.212;2024-01-30T11:13:42;14.67;;;8.90;;
286;SDS011;127;48.770;9.212;2024-01-30T11:16:11;16.33;;;8.43;;
286;SDS011;127;48.770;9.212;2024-01-30T11:18:50;13.87;;;8.33;;
286;SDS011;127;48.770;9.212;2024-01-30T11:21:32;19.53;;;7.70;;
286;SDS011;127;48.770;9.212;2024-01-30T11:27:12;14.87;;;8.13;;
286;SDS011;127;48.770;9.212;2024-01-30T11:29:59;13.93;;;7.30;;
286;SDS011;127;48.770;9.212;2024-01-30T11:36:20;19.57;;;8.00;;
286;SDS011;127;48.770;9.212;2024-01-30T12:39:46;11.70;;;6.10;;
286;SDS011;127;48.770;9.212;2024-01-30T12:42:27;11.20;;;6.30;;
286;SDS011;127;48.770;9.212;2024-01-30T12:44:57;15.03;;;6.73;;
286;SDS011;127;48.770;9.212;2024-01-30T12:47:26;17.67;;;7.10;;
286;SDS011;127;48.770;9.212;2024-01-30T12:49:55;10.50;;;6.80;;
286;SDS011;127;48.770;9.212;2024-01-30T12:52:26;12.37;;;8.47;;
286;SDS011;127;48.770;9.212;2024-01-30T12:54:57;16.10;;;9.63;;
286;SDS011;127;48.770;9.212;2024-01-30T12:57:31;19.80;;;8.73;;
286;SDS011;127;48.770;9.212;2024-01-30T13:00:00;21.87;;;9.70;;
286;SDS011;127;48.770;9.212;2024-01-30T13:02:32;17.27;;;9.70;;
286;SDS011;127;48.770;9.212;2024-01-30T13:05:02;23.57;;;12.30;;
286;SDS011;127;48.770;9.212;2024-01-30T13:07:47;25.10;;;11.73;;
286;SDS011;127;48.770;9.212;2024-01-30T13:10:21;19.60;;;10.90;;
286;SDS011;127;48.770;9.212;2024-01-30T13:12:52;27.23;;;11.10;;
286;SDS011;127;48.770;9.212;2024-01-30T13:15:21;27.43;;;10.50;;
286;SDS011;127;48.770;9.212;2024-01-30T13:17:56;18.90;;;11.67;;
286;SDS011;127;48.770;9.212;2024-01-30T13:20:25;21.43;;;11.30;;
286;SDS011;127;48.770;9.212;2024-01-30T13:22:54;15.63;;;10.27;;
286;SDS011;127;48.770;9.212;2024-01-30T13:25:26;22.63;;;11.23;;
286;SDS011;127;48.770;9.212;2024-01-30T13:28:01;25.60;;;11.27;;
286;SDS011;127;48.770;9.212;2024-01-30T13:33:25;20.20;;;12.27;;
286;SDS011;127;48.770;9.212;2024-01-30T13:35:58;27.20;;;13.80;;
286;SDS011;127;48.770;9.212;2024-01-30T13:38:28;43.63;;;15.90;;
286;SDS011;127;48.770;9.212;2024-01-30T13:41:05;27.70;;;12.00;;
286;SDS011;127;48.770;9.212;2024-01-30T13:43:34;30.57;;;14.17;;
286;SDS011;127;48.770;9.212;2024-01-30T13:46:10;23.90;;;11.23;;
286;SDS011;127;48.770;9.212;2024-01-30T13:48:39;23.77;;;10.63;;
286;SDS011;127;48.770;9.212;2024-01-30T13:51:08;26.30;;;11.73;;
286;SDS011;127;48.770;9.212;2024-01-30T13:53:42;28.10;;;11.53;;
286;SDS011;127;48.770;9.212;2024-01-30T13:56:14;23.33;;;12.30;;
286;SDS011;127;48.770;9.212;2024-01-30T13:58:43;20.77;;;11.10;;
286;SDS011;127;48.770;9.212;2024-01-30T14:01:15;18.70;;;10.77;;
286;SDS011;127;48.770;9.212;2024-01-30T14:03:44;19.97;;;10.20;;
286;SDS011;127;48.770;9.212;2024-01-30T14:06:13;23.73;;;10.50;;
286;SDS011;127;48.770;9.212;2024-01-30T14:11:24;21.80;;;11.93;;
286;SDS011;127;48.770;9.212;2024-01-30T14:13:54;25.50;;;11.20;;
286;SDS011;127;48.770;9.212;2024-01-30T14:16:24;18.90;;;9.90;;
286;SDS011;127;48.770;9.212;2024-01-30T14:18:54;28.70;;;12.50;;
286;SDS011;127;48.770;9.212;2024-01-30T14:21:22;30.50;;;12.37;;
286;SDS011;127;48.770;9.212;2024-01-30T14:23:51;28.30;;;12.40;;
286;SDS011;127;48.770;9.212;2024-01-30T14:26:21;26.20;;;12.20;;
286;SDS011;127;48.770;9.212;2024-01-30T14:28:52;26.57;;;12.70;;
286;SDS011;127;48.770;9.212;2024-01-30T14:31:21;22.23;;;12.13;;
286;SDS011;127;48.770;9.212;2024-01-30T14:33:50;26.87;;;11.83;;
286;SDS011;127;48.770;9.212;2024-01-30T14:36:22;25.67;;;11.27;;
286;SDS011;127;48.770;9.212;2024-01-30T14:38:53;32.20;;;12.33;;
286;SDS011;127;48.770;9.212;2024-01-30T14:41:22;28.73;;;12.20;;
286;SDS011;127;48.770;9.212;2024-01-30T14:43:56;25.43;;;12.33;;
286;SDS011;127;48.770;9.212;2024-01-30T14:46:28;22.40;;;11.37;;
286;SDS011;127;48.770;9.212;2024-01-30T14:48:57;20.13;;;11.17;;
286;SDS011;127;48.770;9.212;2024-01-30T14:51:29;32.13;;;11.87;;
286;SDS011;127;48.770;9.212;2024-01-30T14:53:59;25.10;;;11.20;;
286;SDS011;127;48.770;9.212;2024-01-30T14:56:28;28.57;;;11.43;;
286;SDS011;127;48.770;9.212;2024-01-30T14:59:02;33.37;;;13.53;;
286;SDS011;127;48.770;9.212;2024-01-30T15:01:31;25.13;;;12.07;;
286;SDS011;127;48.770;9.212;2024-01-30T15:04:02;28.90;;;13.10;;
286;SDS011;127;48.770;9.212;2024-01-30T15:06:35;25.43;;;12.30;;
286;SDS011;127;48.770;9.212;2024-01-30T15:09:08;26.60;;;11.63;;
286;SDS011;127;48.770;9.212;2024-01-30T15:11:39;30.87;;;12.17;;
286;SDS011;127;48.770;9.212;2024-01-30T15:14:11;33.10;;;12.57;;
286;SDS011;127;48.770;9.212;2024-01-30T15:19:22;24.30;;;11.60;;
286;SDS011;127;48.770;9.212;2024-01-30T15:21:51;28.60;;;13.07;;
286;SDS011;127;48.770;9.212;2024-01-30T15:24:20;22.30;;;12.63;;
286;SDS011;127;48.770;9.212;2024-01-30T15:26:49;30.50;;;12.67;;
286;SDS011;127;48.770;9.212;2024-01-30T15:29:29;27.10;;;11.97;;
286;SDS011;127;48.770;9.212;2024-01-30T15:31:58;24.00;;;12.33;;
286;SDS011;127;48.770;9.212;2024-01-30T15:34:27;33.37;;;13.70;;
286;SDS011;127;48.770;9.212;2024-01-30T15:36:55;32.60;;;12.93;;
286;SDS011;127;48.770;9.212;2024-01-30T15:39:26;31.73;;;12.43;;
286;SDS011;127;48.770;9.212;2024-01-30T15:41:55;24.67;;;12.70;;
286;SDS011;127;48.770;9.212;2024-01-30T15:44:28;36.07;;;13.53;;
286;SDS011;127;48.770;9.212;2024-01-30T15:46:57;39.90;;;14.30;;
286;SDS011;127;48.770;9.212;2024-01-30T15:49:26;40.43;;;15.00;;
286;SDS011;127;48.770;9.212;2024-01-30T15:51:55;31.27;;;12.87;;
286;SDS011;127;48.770;9.212;2024-01-30T15:54:32;36.93;;;14.43;;
286;SDS011;127;48.770;9.212;2024-01-30T15:57:01;22.23;;;12.50;;
286;SDS011;127;48.770;9.212;2024-01-30T15:59:35;35.93;;;15.40;;
286;SDS011;127;48.770;9.212;2024-01-30T16:02:06;25.43;;;13.40;;
286;SDS011;127;48.770;9.212;2024-01-30T16:04:35;28.73;;;13.03;;
286;SDS011;127;48.770;9.212;2024-01-30T16:07:04;31.23;;;13.70;;
286;SDS011;127;48.770;9.212;2024-01-30T16:09:33;26.53;;;14.03;;
286;SDS011;127;48.770;9.212;2024-01-30T16:12:02;35.40;;;12.93;;
286;SDS011;127;48.770;9.212;2024-01-30T16:14:31;32.03;;;13.87;;
286;SDS011;127;48.770;9.212;2024-01-30T16:17:04;27.53;;;13.50;;
286;SDS011;127;48.770;9.212;2024-01-30T16:19:33;30.80;;;13.97;;
286;SDS011;127;48.770;9.212;2024-01-30T16:22:02;39.90;;;14.33;;
286;SDS011;127;48.770;9.212;2024-01-30T16:24:31;29.67;;;13.27;;
286;SDS011;127;48.770;9.212;2024-01-30T16:27:00;24.93;;;12.67;;
286;SDS011;127;48.770;9.212;2024-01-30T16:29:29;31.20;;;12.53;;
286;SDS011;127;48.770;9.212;2024-01-30T16:31:58;24.40;;;11.30;;
286;SDS011;127;48.770;9.212;2024-01-30T16:34:30;25.40;;;11.60;;
286;SDS011;127;48.770;9.212;2024-01-30T16:36:59;26.43;;;11.10;;
286;SDS011;127;48.770;9.212;2024-01-30T16:39:28;22.23;;;9.43;;
286;SDS011;127;48.770;9.212;2024-01-30T16:41:57;17.83;;;9.20;;
286;SDS011;127;48.770;9.212;2024-01-30T16:44:29;16.47;;;9.53;;
286;SDS011;127;48.770;9.212;2024-01-30T16:46:58;18.33;;;8.10;;
286;SDS011;127;48.770;9.212;2024-01-30T16:49:26;17.53;;;8.20;;
286;SDS011;127;48.770;9.212;2024-01-30T16:52:00;15.00;;;7.77;;
286;SDS011;127;48.770;9.212;2024-01-30T16:54:34;13.90;;;7.30;;
286;SDS011;127;48.770;9.212;2024-01-30T16:57:04;14.80;;;6.70;;
286;SDS011;127;48.770;9.212;2024-01-30T16:59:33;25.60;;;8.13;;
286;SDS011;127;48.770;9.212;2024-01-30T17:02:02;11.50;;;6.60;;
286;SDS011;127;48.770;9.212;2024-01-30T17:04:33;18.60;;;7.70;;
286;SDS011;127;48.770;9.212;2024-01-30T17:07:04;16.90;;;6.80;;
286;SDS011;127;48.770;9.212;2024-01-30T17:09:33;16.87;;;7.70;;
286;SDS011;127;48.770;9.212;2024-01-30T17:12:02;13.27;;;6.03;;
286;SDS011;127;48.770;9.212;2024-01-30T17:14:31;11.80;;;6.70;;